Time;durP1;ratioP1;P1;durP2;ratioP2;P2;SDS_P1;SDS_P2;PMS_P1;PMS_P2;Temp;Humidity;BMP_temperature;BMP_pressure;BME280_temperature;BME280_humidity;BME280_pressure;Samples;Min_cycle;Max_cycle;Signal;HPM_P1;HPM_P2
2023/05/08 00:00:34;;;;;;;10.67;9.50;;;;;;;13.76;100.00;96521.56;5028606;28;102417;-60
2023/05/08 00:03:01;;;;;;;10.37;9.37;;;;;;;13.77;100.00;96515.13;5028902;28;102000;-60
2023/05/08 00:05:27;;;;;;;10.90;9.40;;;;;;;13.79;100.00;96515.69;5029178;28;102305;-60
2023/05/08 00:08:00;;;;;;;9.90;8.87;;;;;;;13.77;100.00;96512.47;5029579;27;102627;-60
2023/05/08 00:10:29;;;;;;;10.20;9.20;;;;;;;13.69;100.00;96519.13;5014792;28;101708;-61
2023/05/08 00:12:56;;;;;;;10.53;9.43;;;;;;;13.65;100.00;96514.59;5008725;28;104900;-61
2023/05/08 00:15:23;;;;;;;10.10;9.00;;;;;;;13.60;100.00;96517.25;5028259;28;105086;-60
2023/05/08 00:17:50;;;;;;;10.90;8.77;;;;;;;13.54;100.00;96515.66;5018679;28;101908;-60
2023/05/08 00:20:17;;;;;;;9.77;8.87;;;;;;;13.50;100.00;96517.25;5021832;28;103756;-60
2023/05/08 00:22:44;;;;;;;11.67;9.77;;;;;;;13.42;100.00;96515.13;5030912;28;105863;-60
2023/05/08 00:25:10;;;;;;;11.00;9.83;;;;;;;13.36;100.00;96518.84;5028489;28;105157;-60
2023/05/08 00:27:39;;;;;;;10.63;9.63;;;;;;;13.36;100.00;96526.84;5026972;28;103992;-60
2023/05/08 00:30:07;;;;;;;10.57;9.57;;;;;;;13.28;100.00;96522.84;5028381;28;101845;-60
2023/05/08 00:32:35;;;;;;;10.60;9.10;;;;;;;13.21;100.00;96527.63;5013932;28;104826;-61
2023/05/08 00:35:02;;;;;;;10.63;9.53;;;;;;;13.15;100.00;96525.19;5007894;28;105538;-60
2023/05/08 00:37:29;;;;;;;12.20;10.80;;;;;;;13.08;100.00;96527.31;5008309;28;101982;-60
2023/05/08 00:39:56;;;;;;;9.87;8.97;;;;;;;13.09;100.00;96527.03;5008488;28;105267;-60
2023/05/08 00:42:23;;;;;;;10.30;9.20;;;;;;;13.11;100.00;96529.44;5007667;28;105646;-60
2023/05/08 00:44:51;;;;;;;14.57;9.83;;;;;;;13.22;100.00;96529.22;5028999;28;101925;-60
2023/05/08 00:47:18;;;;;;;10.33;9.33;;;;;;;13.17;100.00;96536.41;5027884;28;105672;-60
2023/05/08 00:49:45;;;;;;;10.60;9.50;;;;;;;13.19;100.00;96531.63;5026640;28;102007;-60
2023/05/08 00:52:13;;;;;;;10.50;9.40;;;;;;;13.14;100.00;96536.94;5028268;28;104842;-60
2023/05/08 00:54:41;;;;;;;9.57;8.67;;;;;;;13.07;100.00;96539.84;5011037;28;105482;-61
2023/05/08 00:57:08;;;;;;;9.70;8.80;;;;;;;13.09;100.00;96536.94;5028989;28;102434;-60
2023/05/08 00:59:36;;;;;;;9.80;8.90;;;;;;;13.13;100.00;96538.81;5013122;28;104106;-61
2023/05/08 01:02:05;;;;;;;9.90;8.90;;;;;;;13.08;100.00;96530.00;5011129;28;105533;-60
2023/05/08 01:04:34;;;;;;;9.60;8.70;;;;;;;13.03;100.00;96537.97;5011514;28;101891;-60
2023/05/08 01:07:02;;;;;;;10.10;9.03;;;;;;;13.02;100.00;96544.38;5015500;28;103545;-61
2023/05/08 01:09:29;;;;;;;9.30;8.40;;;;;;;13.00;100.00;96546.50;5025919;28;101924;-61
2023/05/08 01:12:05;;;;;;;8.80;7.90;;;;;;;13.01;100.00;96543.56;5047415;27;103517;-60
2023/05/08 01:14:40;;;;;;;8.83;8.03;;;;;;;12.95;100.00;96555.28;5030728;28;105746;-60
2023/05/08 01:17:11;;;;;;;8.50;7.60;;;;;;;12.95;100.00;96552.59;4993449;28;103515;-60
2023/05/08 01:20:04;;;;;;;10.07;8.27;;;;;;;12.98;100.00;96557.44;5008050;28;102892;-60
2023/05/08 01:22:52;;;;;;;8.20;7.37;;;;;;;12.90;100.00;96554.44;5010533;28;105256;-61
2023/05/08 01:26:13;;;;;;;7.80;7.10;;;;;;;12.81;100.00;96561.34;5009636;28;101712;-61
2023/05/08 01:29:10;;;;;;;8.33;7.53;;;;;;;13.02;100.00;96565.75;5017793;28;105059;-61
2023/05/08 01:31:51;;;;;;;9.17;8.20;;;;;;;13.05;100.00;96567.88;5033739;28;101915;-60
2023/05/08 01:34:24;;;;;;;9.43;8.53;;;;;;;13.01;100.00;96572.13;5027428;28;105648;-61
2023/05/08 01:36:55;;;;;;;9.00;8.17;;;;;;;13.11;100.00;96573.00;4990445;28;103860;-60
2023/05/08 01:39:31;;;;;;;9.07;8.27;;;;;;;13.23;100.00;96570.06;5023061;28;101899;-60
2023/05/08 01:42:05;;;;;;;9.60;7.90;;;;;;;13.35;100.00;96568.00;5030942;28;103650;-60
2023/05/08 01:44:37;;;;;;;8.90;8.03;;;;;;;13.41;100.00;96574.94;5028476;28;104011;-60
2023/05/08 01:47:07;;;;;;;8.57;7.67;;;;;;;13.45;100.00;96576.81;5031120;28;101789;-60
2023/05/08 01:49:40;;;;;;;7.97;7.27;;;;;;;13.51;100.00;96577.66;5013002;28;105890;-60
2023/05/08 01:52:12;;;;;;;8.20;7.50;;;;;;;13.48;100.00;96578.97;5015210;28;102867;-60
2023/05/08 01:54:44;;;;;;;8.37;7.50;;;;;;;13.45;100.00;96578.69;5010720;28;105552;-60
2023/05/08 01:57:14;;;;;;;7.73;7.03;;;;;;;13.49;100.00;96579.78;5010300;28;105574;-61
2023/05/08 01:59:43;;;;;;;9.20;8.30;;;;;;;13.55;100.00;96587.53;5010662;28;101912;-61
2023/05/08 02:02:12;;;;;;;9.80;8.37;;;;;;;13.54;100.00;96583.28;5010672;28;105593;-60
2023/05/08 02:04:43;;;;;;;9.33;8.27;;;;;;;13.58;100.00;96589.66;5044961;27;105025;-60
2023/05/08 02:07:10;;;;;;;8.87;8.07;;;;;;;13.64;100.00;96579.81;5016537;28;101913;-61
2023/05/08 02:09:39;;;;;;;9.93;9.00;;;;;;;13.63;100.00;96591.56;5010299;28;105081;-60
2023/05/08 02:12:07;;;;;;;8.83;8.03;;;;;;;13.62;100.00;96588.09;5022588;28;105127;-60
2023/05/08 02:14:36;;;;;;;8.37;7.63;;;;;;;13.57;100.00;96592.63;5033513;28;102070;-60
2023/05/08 02:17:08;;;;;;;9.33;8.53;;;;;;;13.58;100.00;96592.34;5017427;28;104416;-60
2023/05/08 02:19:37;;;;;;;9.30;8.33;;;;;;;13.48;100.00;96589.69;5010568;28;101694;-60
2023/05/08 02:22:08;;;;;;;9.97;8.97;;;;;;;13.54;100.00;96598.50;5010579;28;105387;-60
2023/05/08 02:24:36;;;;;;;10.47;9.23;;;;;;;13.48;100.00;96587.00;5028540;28;105980;-60
2023/05/08 02:27:03;;;;;;;10.77;9.67;;;;;;;13.52;100.00;96593.41;5010480;28;102524;-60
2023/05/08 02:29:31;;;;;;;10.77;9.00;;;;;;;13.56;100.00;96597.16;5009793;28;104802;-60
2023/05/08 02:32:00;;;;;;;10.37;9.27;;;;;;;13.61;100.00;96593.69;5009154;28;105542;-60
2023/05/08 02:34:29;;;;;;;10.60;9.50;;;;;;;13.54;100.00;96593.97;5015126;28;101875;-60
2023/05/08 02:36:59;;;;;;;10.70;9.63;;;;;;;13.57;100.00;96603.31;5018422;28;102436;-60
2023/05/08 02:39:31;;;;;;;10.73;9.70;;;;;;;13.55;100.00;96592.06;5030474;28;102010;-60
2023/05/08 02:41:59;;;;;;;9.70;8.80;;;;;;;13.54;100.00;96599.31;5015173;28;105696;-61
2023/05/08 02:44:28;;;;;;;8.60;7.87;;;;;;;13.49;100.00;96599.28;5009550;28;104726;-60
2023/05/08 02:46:59;;;;;;;9.17;8.37;;;;;;;13.44;100.00;96599.28;5009855;28;101792;-61
2023/05/08 02:49:32;;;;;;;9.47;8.47;;;;;;;13.37;100.00;96598.72;5019038;28;105503;-61
2023/05/08 02:52:05;;;;;;;9.43;8.53;;;;;;;13.49;100.00;96606.47;5029278;28;105744;-60
2023/05/08 02:54:42;;;;;;;9.30;8.30;;;;;;;13.42;100.00;96606.72;5012149;28;101807;-60
2023/05/08 02:57:15;;;;;;;9.33;8.43;;;;;;;13.35;100.00;96595.50;5010036;28;104815;-61
2023/05/08 02:59:47;;;;;;;9.40;8.47;;;;;;;13.28;100.00;96604.81;5013970;28;105420;-60
2023/05/08 03:02:18;;;;;;;9.40;8.53;;;;;;;13.34;100.00;96598.41;5024117;28;105205;-61
2023/05/08 03:04:50;;;;;;;9.47;8.50;;;;;;;13.22;100.00;96597.84;5010025;28;105553;-60
2023/05/08 03:07:18;;;;;;;9.73;8.83;;;;;;;13.18;100.00;96594.91;5010647;28;101950;-60
2023/05/08 03:09:51;;;;;;;9.63;8.70;;;;;;;13.22;100.00;96600.53;5009600;28;105147;-60
2023/05/08 03:12:23;;;;;;;9.10;8.30;;;;;;;13.16;100.00;96601.56;5008920;28;104952;-60
2023/05/08 03:15:00;;;;;;;9.27;8.47;;;;;;;13.22;100.00;96595.19;5030853;28;101983;-60
2023/05/08 03:17:29;;;;;;;9.40;8.40;;;;;;;13.15;100.00;96594.63;5029505;28;105168;-60
2023/05/08 03:20:00;;;;;;;9.77;8.87;;;;;;;13.10;100.00;96599.94;5029003;28;105695;-60
2023/05/08 03:22:30;;;;;;;8.40;7.67;;;;;;;13.10;100.00;96600.75;5017258;28;102025;-61
2023/05/08 03:25:01;;;;;;;8.93;8.03;;;;;;;13.15;100.00;96598.09;4990387;28;103631;-60
2023/05/08 03:27:29;;;;;;;9.07;8.23;;;;;;;12.99;100.00;96600.97;5021525;28;102463;-61
2023/05/08 03:29:58;;;;;;;11.33;8.80;;;;;;;13.01;100.00;96604.16;5030526;27;101768;-60
2023/05/08 03:32:27;;;;;;;9.70;8.80;;;;;;;12.91;100.00;96604.09;5026847;28;104855;-60
2023/05/08 03:34:58;;;;;;;9.17;8.37;;;;;;;12.91;100.00;96598.75;4989396;28;102026;-60
2023/05/08 03:37:27;;;;;;;8.70;8.00;;;;;;;13.00;100.00;96599.88;5005258;28;105463;-60
2023/05/08 03:39:55;;;;;;;10.17;9.10;;;;;;;13.06;100.00;96598.84;5008362;28;105392;-61
2023/05/08 03:42:24;;;;;;;10.50;9.40;;;;;;;13.07;100.00;96595.09;5012563;28;101931;-60
2023/05/08 03:44:52;;;;;;;10.47;9.47;;;;;;;13.05;100.00;96595.38;5027750;28;105619;-61
2023/05/08 03:47:20;;;;;;;10.07;9.07;;;;;;;13.08;100.00;96602.06;5029333;28;101967;-60
2023/05/08 03:49:49;;;;;;;10.10;9.20;;;;;;;13.00;100.00;96607.91;5009881;28;104817;-60
2023/05/08 03:52:17;;;;;;;10.13;9.03;;;;;;;12.92;100.00;96611.03;5008266;28;105428;-60
2023/05/08 03:54:45;;;;;;;10.20;9.20;;;;;;;12.97;100.00;96603.88;5024813;28;102114;-61
2023/05/08 03:57:12;;;;;;;9.93;8.93;;;;;;;12.91;100.00;96604.88;5009179;28;104737;-60
2023/05/08 03:59:50;;;;;;;9.23;8.03;;;;;;;12.94;100.00;96603.56;5009417;28;105502;-60
2023/05/08 04:02:25;;;;;;;9.93;9.07;;;;;;;12.93;100.00;96607.31;5009026;28;101830;-61
2023/05/08 04:05:00;;;;;;;9.40;8.53;;;;;;;12.70;100.00;96615.72;5013862;28;104827;-60
2023/05/08 04:07:32;;;;;;;9.47;8.43;;;;;;;12.76;100.00;96617.34;5028890;28;101842;-60
2023/05/08 04:10:06;;;;;;;10.37;9.30;;;;;;;12.84;100.00;96622.19;4988873;28;105127;-60
2023/05/08 04:12:40;;;;;;;9.33;8.43;;;;;;;12.64;100.00;96625.53;4992346;28;105055;-60
2023/05/08 04:15:14;;;;;;;9.73;8.77;;;;;;;12.68;100.00;96633.84;5008631;28;101830;-60
2023/05/08 04:17:45;;;;;;;9.97;9.07;;;;;;;12.83;100.00;96625.94;5009319;28;105248;-60
2023/05/08 04:20:24;;;;;;;10.60;9.63;;;;;;;12.72;100.00;96630.41;5008248;28;105478;-61
2023/05/08 04:22:53;;;;;;;10.90;9.53;;;;;;;12.81;100.00;96630.72;5022828;28;101999;-60
2023/05/08 04:25:41;;;;;;;9.67;8.77;;;;;;;12.70;100.00;96631.72;5008949;28;105033;-60
2023/05/08 04:28:10;;;;;;;11.40;10.27;;;;;;;12.58;100.00;96637.25;5011057;28;105690;-61
2023/05/08 04:30:41;;;;;;;12.27;9.93;;;;;;;12.64;100.00;96638.09;5007956;28;105392;-60
2023/05/08 04:33:09;;;;;;;9.27;8.43;;;;;;;12.43;100.00;96649.69;5008256;28;105382;-60
2023/05/08 04:35:36;;;;;;;9.10;8.30;;;;;;;12.50;100.00;96644.94;5011202;28;102027;-60
2023/05/08 04:38:03;;;;;;;9.50;8.50;;;;;;;12.57;100.00;96648.16;5014494;28;104951;-60
2023/05/08 04:40:30;;;;;;;10.50;9.50;;;;;;;12.44;100.00;96657.41;5032029;28;105327;-60
2023/05/08 04:42:58;;;;;;;9.77;8.87;;;;;;;12.33;100.00;96654.94;5031603;28;101975;-60
2023/05/08 04:45:43;;;;;;;10.13;9.10;;;;;;;12.46;100.00;96659.81;5032351;28;105315;-60
2023/05/08 04:48:10;;;;;;;9.90;8.90;;;;;;;12.52;100.00;96664.94;5031648;28;103761;-60
2023/05/08 04:50:37;;;;;;;11.33;9.53;;;;;;;12.61;100.00;96657.28;5035633;28;102151;-61
2023/05/08 04:53:04;;;;;;;9.43;8.53;;;;;;;12.68;100.00;96663.19;5025272;28;105438;-60
2023/05/08 04:55:31;;;;;;;9.87;8.87;;;;;;;12.70;100.00;96667.22;5011853;28;102102;-60
2023/05/08 04:57:58;;;;;;;9.60;8.70;;;;;;;12.68;100.00;96666.66;5011871;28;104943;-60
2023/05/08 05:00:25;;;;;;;9.70;8.80;;;;;;;12.66;100.00;96673.31;5012673;28;105567;-60
2023/05/08 05:02:54;;;;;;;9.07;8.27;;;;;;;12.73;100.00;96671.22;5026885;28;102019;-60
2023/05/08 05:05:28;;;;;;;9.33;8.43;;;;;;;12.60;100.00;96672.47;5022023;28;104935;-60
2023/05/08 05:07:55;;;;;;;9.70;8.70;;;;;;;12.53;100.00;96681.78;5031216;28;105066;-60
2023/05/08 05:10:22;;;;;;;8.90;8.10;;;;;;;12.52;100.00;96680.97;5015138;28;102107;-60
2023/05/08 05:12:49;;;;;;;9.40;8.50;;;;;;;12.46;100.00;96678.50;5034583;28;104863;-60
2023/05/08 05:15:19;;;;;;;10.13;9.20;;;;;;;12.47;100.00;96680.91;5031704;28;102135;-60
2023/05/08 05:17:47;;;;;;;10.27;9.27;;;;;;;12.24;100.00;96683.94;5031109;28;105699;-61
2023/05/08 05:20:15;;;;;;;8.77;7.97;;;;;;;12.19;100.00;96681.22;5030975;28;105878;-60
2023/05/08 05:22:43;;;;;;;8.90;8.10;;;;;;;12.16;100.00;96687.03;5020174;28;101942;-60
2023/05/08 05:25:12;;;;;;;9.77;8.40;;;;;;;12.12;100.00;96695.81;5011387;28;105203;-60
2023/05/08 05:27:40;;;;;;;9.63;8.73;;;;;;;12.21;100.00;96691.63;5021352;28;105587;-60
2023/05/08 05:30:09;;;;;;;9.40;8.60;;;;;;;12.11;100.00;96702.19;5024634;28;102282;-60
2023/05/08 05:32:36;;;;;;;10.20;9.20;;;;;;;12.13;100.00;96705.41;5012037;28;105184;-60
2023/05/08 05:35:13;;;;;;;9.43;8.53;;;;;;;12.19;100.00;96701.72;5014048;28;105956;-60
2023/05/08 05:37:42;;;;;;;9.70;8.80;;;;;;;12.31;100.00;96703.19;5010920;28;105012;-60
2023/05/08 05:40:12;;;;;;;9.90;8.83;;;;;;;12.46;100.00;96702.50;5029398;28;104231;-60
2023/05/08 05:42:39;;;;;;;9.67;8.77;;;;;;;12.31;100.00;96702.41;5017219;28;101943;-61
2023/05/08 05:45:08;;;;;;;9.63;8.73;;;;;;;12.21;100.00;96707.63;5010928;28;104737;-60
2023/05/08 05:47:35;;;;;;;9.60;8.70;;;;;;;12.14;100.00;96712.34;5024653;28;105512;-60
2023/05/08 05:50:05;;;;;;;12.07;9.40;;;;;;;12.13;100.00;96708.06;5031091;28;101925;-60
2023/05/08 05:52:32;;;;;;;10.03;9.03;;;;;;;12.09;100.00;96713.09;5032102;27;102763;-60
2023/05/08 05:55:07;;;;;;;10.53;9.40;;;;;;;12.08;100.00;96710.69;5035104;27;102854;-60
2023/05/08 05:57:35;;;;;;;9.63;8.73;;;;;;;11.99;100.00;96717.53;5021102;28;105587;-60
2023/05/08 06:00:04;;;;;;;8.57;7.77;;;;;;;12.06;100.00;96718.94;5018186;28;104455;-60
2023/05/08 06:02:42;;;;;;;8.87;8.07;;;;;;;12.07;100.00;96717.06;5009480;28;101825;-59
2023/05/08 06:05:24;;;;;;;10.33;9.17;;;;;;;12.07;100.00;96719.75;4999629;28;104776;-61
2023/05/08 06:07:51;;;;;;;10.07;9.07;;;;;;;12.04;100.00;96722.94;4997353;28;105341;-61
2023/05/08 06:10:20;;;;;;;9.70;8.80;;;;;;;12.09;100.00;96728.28;4990741;28;101913;-61
2023/05/08 06:12:48;;;;;;;10.53;9.47;;;;;;;12.27;100.00;96728.72;4999414;28;101715;-61
2023/05/08 06:15:44;;;;;;;10.33;9.43;;;;;;;12.30;100.00;96725.56;5001107;28;105447;-61
2023/05/08 06:18:11;;;;;;;13.87;9.70;;;;;;;12.30;100.00;96735.41;4993871;28;101971;-61
2023/05/08 06:20:38;;;;;;;11.17;9.17;;;;;;;12.41;100.00;96732.63;5017730;28;105289;-61
2023/05/08 06:23:07;;;;;;;9.77;8.80;;;;;;;12.47;100.00;96738.78;5022946;28;101986;-61
2023/05/08 06:25:35;;;;;;;9.70;8.90;;;;;;;12.41;100.00;96740.63;5002052;28;103055;-64
2023/05/08 06:28:05;;;;;;;9.97;8.93;;;;;;;12.62;100.00;96744.25;5009225;28;103834;-61
2023/05/08 06:30:32;;;;;;;12.60;9.57;;;;;;;12.54;100.00;96744.72;5001772;28;102000;-61
2023/05/08 06:32:59;;;;;;;10.63;9.53;;;;;;;12.61;100.00;96742.66;5026844;28;105602;-61
2023/05/08 06:35:26;;;;;;;10.17;9.17;;;;;;;12.61;100.00;96750.66;5013991;27;102504;-61
2023/05/08 06:37:53;;;;;;;10.17;9.23;;;;;;;12.69;100.00;96745.66;5012982;28;102229;-61
2023/05/08 06:40:20;;;;;;;9.67;8.77;;;;;;;12.68;100.00;96746.72;5012504;28;105496;-61
2023/05/08 06:42:49;;;;;;;9.83;8.83;;;;;;;12.68;100.00;96748.56;5011429;28;101851;-61
2023/05/08 06:45:40;;;;;;;10.03;8.47;;;;;;;12.66;100.00;96746.19;4997403;28;104979;-62
2023/05/08 06:48:07;;;;;;;9.93;9.03;;;;;;;12.67;100.00;96754.97;5010534;28;103134;-61
2023/05/08 06:50:38;;;;;;;10.90;9.80;;;;;;;12.79;100.00;96742.25;5017454;28;102188;-61
2023/05/08 06:53:51;;;;;;;9.57;8.70;;;;;;;12.86;100.00;96750.88;5014397;28;102774;-61
2023/05/08 06:56:18;;;;;;;10.13;8.67;;;;;;;12.75;100.00;96751.84;5012490;28;102210;-60
2023/05/08 06:58:46;;;;;;;9.83;8.83;;;;;;;12.93;100.00;96754.91;5030420;27;102005;-61
2023/05/08 07:01:13;;;;;;;9.83;8.87;;;;;;;12.76;100.00;96750.78;5029338;28;104785;-61
2023/05/08 07:03:41;;;;;;;9.63;8.73;;;;;;;12.64;100.00;96752.84;5032499;28;105594;-60
2023/05/08 07:06:09;;;;;;;10.17;9.10;;;;;;;12.77;100.00;96747.06;5001504;28;104976;-60
2023/05/08 07:08:36;;;;;;;9.47;8.57;;;;;;;12.86;100.00;96748.19;4990258;28;102760;-60
2023/05/08 07:11:03;;;;;;;9.33;8.47;;;;;;;13.04;100.00;96751.28;4994193;28;102299;-60
2023/05/08 07:13:52;;;;;;;10.00;9.10;;;;;;;13.09;100.00;96745.97;5029353;28;105299;-60
2023/05/08 07:16:19;;;;;;;9.93;9.10;;;;;;;13.23;100.00;96749.81;5018439;28;104337;-59
2023/05/08 07:18:46;;;;;;;10.40;9.40;;;;;;;13.32;100.00;96756.28;5029552;28;101889;-60
2023/05/08 07:21:14;;;;;;;9.70;8.80;;;;;;;13.28;100.00;96751.72;5015700;28;105659;-60
2023/05/08 07:24:11;;;;;;;9.77;8.90;;;;;;;13.27;100.00;96758.94;5004317;28;105001;-60
2023/05/08 07:26:38;;;;;;;9.27;8.43;;;;;;;13.36;100.00;96757.38;5010089;28;102530;-60
2023/05/08 07:29:07;;;;;;;9.90;9.00;;;;;;;13.53;100.00;96762.53;5008021;28;105226;-60
2023/05/08 07:31:33;;;;;;;10.50;9.50;;;;;;;13.55;100.00;96763.91;5009226;28;102005;-60
2023/05/08 07:34:02;;;;;;;9.70;8.70;;;;;;;13.64;100.00;96766.88;5006830;28;104876;-61
2023/05/08 07:36:29;;;;;;;9.97;9.10;;;;;;;13.70;100.00;96768.50;4991946;28;103776;-60
2023/05/08 07:38:56;;;;;;;10.20;9.10;;;;;;;13.51;100.00;96765.47;4995991;28;102399;-60
2023/05/08 07:41:26;;;;;;;10.10;9.20;;;;;;;13.66;100.00;96770.91;5026118;28;105415;-61
2023/05/08 07:44:03;;;;;;;10.63;9.63;;;;;;;13.62;100.00;96769.81;5008369;28;104292;-60
2023/05/08 07:46:31;;;;;;;10.57;9.57;;;;;;;13.73;100.00;96768.00;5009044;28;101934;-60
2023/05/08 07:48:58;;;;;;;10.87;9.37;;;;;;;13.69;100.00;96772.25;5011801;28;105197;-60
2023/05/08 07:51:25;;;;;;;10.60;9.60;;;;;;;13.73;100.00;96776.81;5022309;28;102229;-60
2023/05/08 07:54:02;;;;;;;10.30;9.23;;;;;;;13.75;100.00;96779.22;5030359;28;102488;-60
2023/05/08 07:56:28;;;;;;;10.53;9.53;;;;;;;13.86;100.00;96780.88;4998886;27;102555;-61
2023/05/08 07:58:55;;;;;;;9.90;9.00;;;;;;;13.97;100.00;96779.84;4988471;28;101950;-61
2023/05/08 08:01:22;;;;;;;9.87;8.87;;;;;;;14.02;100.00;96780.66;4994810;28;104857;-61
2023/05/08 08:03:57;;;;;;;10.57;9.53;;;;;;;13.88;100.00;96782.22;5006982;28;105069;-61
2023/05/08 08:06:24;;;;;;;10.00;9.00;;;;;;;14.00;100.00;96780.13;5020085;28;101836;-61
2023/05/08 08:08:50;;;;;;;10.97;9.87;;;;;;;14.01;100.00;96784.41;5011249;28;105116;-61
2023/05/08 08:11:17;;;;;;;10.17;9.17;;;;;;;13.90;100.00;96785.44;5008517;28;101886;-61
2023/05/08 08:13:53;;;;;;;10.70;9.70;;;;;;;14.05;100.00;96782.00;5023818;28;105276;-62
2023/05/08 08:16:19;;;;;;;13.43;9.57;;;;;;;14.16;100.00;96778.31;4997326;28;104272;-61
2023/05/08 08:18:46;;;;;;;11.90;10.27;;;;;;;13.97;100.00;96783.34;4988575;28;101963;-60
2023/05/08 08:21:15;;;;;;;11.90;10.70;;;;;;;13.94;100.00;96783.03;4987683;28;104996;-62
2023/05/08 08:23:43;;;;;;;11.80;10.57;;;;;;;14.04;100.00;96781.22;5002504;28;105255;-63
2023/05/08 08:26:10;;;;;;;12.20;11.00;;;;;;;14.01;100.00;96775.59;5004375;27;102215;-63
2023/05/08 08:28:37;;;;;;;14.80;11.40;;;;;;;14.08;100.00;96782.31;4987437;28;104754;-63
2023/05/08 08:31:04;;;;;;;12.23;10.93;;;;;;;14.30;100.00;96779.44;4995760;28;105087;-62
2023/05/08 08:36:54;;;;;;;13.17;11.03;;;;;;;14.17;100.00;96779.94;5006627;28;104296;-63
2023/05/08 08:39:21;;;;;;;13.40;11.40;;;;;;;14.27;100.00;96778.09;5007312;28;102206;-62
2023/05/08 08:41:48;;;;;;;13.50;11.13;;;;;;;14.42;100.00;96778.16;5008666;28;102379;-62
2023/05/08 08:44:46;;;;;;;15.80;11.80;;;;;;;14.43;100.00;96778.94;5010699;28;106127;-62
2023/05/08 08:47:16;;;;;;;15.63;12.50;;;;;;;14.44;100.00;96776.00;4995418;28;102134;-62
2023/05/08 08:49:48;;;;;;;16.00;11.47;;;;;;;14.60;100.00;96777.63;4987260;28;104796;-62
2023/05/08 08:52:27;;;;;;;16.57;11.80;;;;;;;14.56;100.00;96778.44;4986645;28;105714;-62
2023/05/08 08:55:12;;;;;;;17.00;12.87;;;;;;;14.49;100.00;96784.03;4992694;28;102169;-63
2023/05/08 08:57:48;;;;;;;16.93;13.07;;;;;;;14.48;100.00;96776.28;5006693;28;105144;-62
2023/05/08 09:00:16;;;;;;;16.40;13.03;;;;;;;14.61;100.00;96779.22;5007197;28;101807;-62
2023/05/08 09:02:43;;;;;;;16.47;13.33;;;;;;;14.71;100.00;96770.44;5007185;28;104905;-63
2023/05/08 09:05:57;;;;;;;19.43;13.97;;;;;;;14.77;100.00;96780.06;5004481;28;103047;-62
2023/05/08 09:08:26;;;;;;;17.87;13.97;;;;;;;14.86;100.00;96778.44;4988288;28;102077;-62
2023/05/08 09:10:55;;;;;;;19.27;14.93;;;;;;;14.83;100.00;96770.97;5016890;28;105131;-62
2023/05/08 09:13:28;;;;;;;19.73;14.30;;;;;;;14.85;100.00;96776.84;5011288;28;104268;-62
2023/05/08 09:15:57;;;;;;;19.07;14.07;;;;;;;14.97;100.00;96777.38;4986929;28;101884;-62
2023/05/08 09:18:24;;;;;;;19.83;14.80;;;;;;;14.84;100.00;96775.25;4989867;28;105186;-63
2023/05/08 09:20:51;;;;;;;18.87;14.53;;;;;;;15.04;100.00;96775.25;4989494;28;101858;-61
2023/05/08 09:24:01;;;;;;;20.70;15.30;;;;;;;15.27;100.00;96780.06;4990284;28;105154;-61
2023/05/08 09:26:32;;;;;;;19.90;14.57;;;;;;;15.22;100.00;96778.19;4975620;28;102773;-61
2023/05/08 09:29:09;;;;;;;20.77;14.47;;;;;;;15.23;100.00;96779.78;4989863;28;101900;-61
2023/05/08 09:31:38;;;;;;;17.93;14.00;;;;;;;15.09;100.00;96772.59;5005089;28;102308;-61
2023/05/08 09:34:49;;;;;;;16.93;14.47;;;;;;;15.31;100.00;96771.19;5011669;28;105754;-61
2023/05/08 09:37:17;;;;;;;15.77;13.53;;;;;;;15.67;100.00;96771.94;5010816;28;102139;-62
2023/05/08 09:39:46;;;;;;;18.70;15.03;;;;;;;15.75;100.00;96766.03;5031335;28;102344;-61
2023/05/08 09:42:14;;;;;;;20.60;16.00;;;;;;;15.68;100.00;96770.88;5033019;28;104151;-61
2023/05/08 09:44:54;;;;;;;18.83;15.37;;;;;;;15.68;100.00;96770.88;5029988;28;105444;-61
2023/05/08 09:47:22;;;;;;;19.03;15.17;;;;;;;15.87;100.00;96774.56;4991139;27;103061;-61
2023/05/08 09:49:59;;;;;;;21.27;15.60;;;;;;;15.98;100.00;96776.13;4989846;28;102443;-61
2023/05/08 09:52:27;;;;;;;17.70;14.80;;;;;;;16.10;100.00;96784.66;4995002;28;102584;-61
2023/05/08 09:55:03;;;;;;;17.43;14.77;;;;;;;16.08;100.00;96778.78;5010607;28;102589;-61
2023/05/08 09:57:35;;;;;;;17.57;15.27;;;;;;;16.23;100.00;96784.88;5005505;28;102031;-61
2023/05/08 10:00:04;;;;;;;19.87;14.57;;;;;;;16.28;100.00;96781.34;5012875;28;102521;-61
2023/05/08 10:02:34;;;;;;;16.97;14.47;;;;;;;16.21;100.00;96779.00;5007111;28;102505;-61
2023/05/08 10:05:23;;;;;;;16.70;13.93;;;;;;;16.60;100.00;96782.56;5014513;28;102026;-62
2023/05/08 10:07:52;;;;;;;16.03;13.80;;;;;;;16.61;100.00;96778.78;4990534;28;103133;-62
2023/05/08 10:10:25;;;;;;;16.17;14.10;;;;;;;16.52;100.00;96783.13;4990923;28;101860;-61
2023/05/08 10:12:56;;;;;;;16.90;14.30;;;;;;;16.61;100.00;96788.69;4990879;28;102814;-61
2023/05/08 10:15:43;;;;;;;15.90;13.50;;;;;;;16.59;100.00;96778.25;4990011;28;102625;-61
2023/05/08 10:18:10;;;;;;;16.20;14.50;;;;;;;16.69;100.00;96783.56;4990895;28;101792;-61
2023/05/08 10:20:41;;;;;;;15.77;14.10;;;;;;;16.49;100.00;96780.19;4990509;28;102607;-61
2023/05/08 10:23:11;;;;;;;15.70;14.10;;;;;;;16.80;100.00;96777.06;4990227;28;102909;-61
2023/05/08 10:25:43;;;;;;;17.07;15.00;;;;;;;17.20;100.00;96773.22;4994554;28;102218;-61
2023/05/08 10:28:19;;;;;;;16.50;14.80;;;;;;;17.30;100.00;96762.38;4989856;28;102727;-61
2023/05/08 10:30:49;;;;;;;17.33;14.97;;;;;;;17.22;100.00;96768.38;4989050;28;102042;-61
2023/05/08 10:33:21;;;;;;;16.40;14.33;;;;;;;17.36;100.00;96763.94;5015324;28;102351;-61
2023/05/08 10:35:49;;;;;;;17.60;14.73;;;;;;;16.68;100.00;96763.16;5019458;28;101989;-61
2023/05/08 10:42:02;;;;;;;16.27;14.57;;;;;;;17.67;100.00;96757.19;5021043;28;102320;-61
2023/05/08 10:44:55;;;;;;;16.20;14.57;;;;;;;17.50;100.00;96756.84;5008548;28;105797;-61
2023/05/08 10:47:33;;;;;;;15.47;13.80;;;;;;;17.75;100.00;96760.03;4998429;28;101873;-61
2023/05/08 10:50:19;;;;;;;16.17;14.43;;;;;;;17.91;100.00;96747.22;5013956;28;102299;-61
2023/05/08 10:52:56;;;;;;;16.20;14.60;;;;;;;17.88;100.00;96751.28;5010133;28;101851;-61
2023/05/08 10:55:38;;;;;;;15.07;13.50;;;;;;;17.85;100.00;96751.88;5013724;28;105824;-61
2023/05/08 10:58:09;;;;;;;15.27;13.63;;;;;;;17.81;100.00;96736.56;5002266;28;104494;-62
2023/05/08 11:01:16;;;;;;;15.97;14.17;;;;;;;17.94;100.00;96741.28;5011484;28;101881;-62
2023/05/08 11:03:53;;;;;;;16.80;15.13;;;;;;;18.14;100.00;96749.09;4997182;28;104372;-62
2023/05/08 11:06:45;;;;;;;16.23;14.23;;;;;;;18.11;100.00;96742.41;5004361;28;105275;-62
2023/05/08 11:09:20;;;;;;;16.37;14.67;;;;;;;17.94;100.00;96743.97;5011034;28;101909;-62
2023/05/08 11:11:59;;;;;;;16.40;14.70;;;;;;;18.04;100.00;96747.31;5008713;28;105225;-62
2023/05/08 11:15:05;;;;;;;16.00;14.10;;;;;;;18.12;100.00;96744.00;5011535;28;105343;-62
2023/05/08 11:17:34;;;;;;;17.50;15.43;;;;;;;18.49;100.00;96738.66;5008748;28;104893;-62
2023/05/08 11:20:02;;;;;;;17.00;15.00;;;;;;;18.72;100.00;96736.97;5009271;28;102697;-63
2023/05/08 11:22:31;;;;;;;17.37;15.67;;;;;;;18.55;100.00;96739.38;5008437;28;101979;-62
2023/05/08 11:25:01;;;;;;;17.40;15.50;;;;;;;18.40;100.00;96735.03;5023235;28;105135;-63
2023/05/08 11:28:01;;;;;;;16.27;14.67;;;;;;;18.75;100.00;96731.00;5008943;28;105846;-63
2023/05/08 11:30:36;;;;;;;16.50;14.80;;;;;;;18.76;100.00;96736.09;5009810;28;102144;-62
2023/05/08 11:33:17;;;;;;;17.53;15.73;;;;;;;18.44;100.00;96725.28;5009999;28;102392;-62
2023/05/08 11:35:59;;;;;;;17.00;15.20;;;;;;;18.39;100.00;96729.91;5011470;27;102693;-62
2023/05/08 11:38:28;;;;;;;16.67;15.07;;;;;;;18.26;100.00;96725.25;5014363;28;102115;-62